sensor_id;sensor_type;location;lat;lon;timestamp;P1;durP1;ratioP1;P2;durP2;ratioP2
53931;SDS011;39844;52.496;13.482;2023-07-13T00:01:48;1.42;;;1.33;;
53931;SDS011;39844;52.496;13.482;2023-07-13T00:04:13;2.05;;;1.60;;
53931;SDS011;39844;52.496;13.482;2023-07-13T00:06:39;3.92;;;1.73;;
53931;SDS011;39844;52.496;13.482;2023-07-13T00:09:04;1.73;;;1.52;;
53931;SDS011;39844;52.496;13.482;2023-07-13T00:11:29;2.47;;;1.80;;
53931;SDS011;39844;52.496;13.482;2023-07-13T00:13:55;3.57;;;2.00;;
53931;SDS011;39844;52.496;13.482;2023-07-13T00:16:20;3.38;;;2.15;;
53931;SDS011;39844;52.496;13.482;2023-07-13T00:18:46;3.92;;;1.92;;
53931;SDS011;39844;52.496;13.482;2023-07-13T00:21:12;2.38;;;1.77;;
53931;SDS011;39844;52.496;13.482;2023-07-13T00:23:38;4.63;;;1.70;;
53931;SDS011;39844;52.496;13.482;2023-07-13T00:26:06;1.70;;;1.60;;
53931;SDS011;39844;52.496;13.482;2023-07-13T00:28:32;2.90;;;1.50;;
53931;SDS011;39844;52.496;13.482;2023-07-13T00:30:59;2.80;;;1.80;;
53931;SDS011;39844;52.496;13.482;2023-07-13T00:33:24;1.88;;;1.50;;
53931;SDS011;39844;52.496;13.482;2023-07-13T00:35:50;1.88;;;1.65;;
53931;SDS011;39844;52.496;13.482;2023-07-13T00:38:15;2.63;;;1.75;;
53931;SDS011;39844;52.496;13.482;2023-07-13T00:40:41;4.88;;;1.90;;
53931;SDS011;39844;52.496;13.482;2023-07-13T00:43:18;4.55;;;1.85;;
53931;SDS011;39844;52.496;13.482;2023-07-13T00:48:11;4.05;;;1.63;;
53931;SDS011;39844;52.496;13.482;2023-07-13T00:50:41;1.70;;;1.60;;
53931;SDS011;39844;52.496;13.482;2023-07-13T00:53:09;1.67;;;1.58;;
53931;SDS011;39844;52.496;13.482;2023-07-13T00:55:35;1.77;;;1.63;;
53931;SDS011;39844;52.496;13.482;2023-07-13T00:58:01;2.50;;;1.63;;
53931;SDS011;39844;52.496;13.482;2023-07-13T01:00:26;1.73;;;1.63;;
53931;SDS011;39844;52.496;13.482;2023-07-13T01:02:55;1.70;;;1.60;;
53931;SDS011;39844;52.496;13.482;2023-07-13T01:05:22;1.35;;;1.25;;
53931;SDS011;39844;52.496;13.482;2023-07-13T01:07:49;1.80;;;1.70;;
53931;SDS011;39844;52.496;13.482;2023-07-13T01:10:17;2.05;;;1.85;;
53931;SDS011;39844;52.496;13.482;2023-07-13T01:12:46;2.72;;;1.95;;
53931;SDS011;39844;52.496;13.482;2023-07-13T01:18:10;3.97;;;1.80;;
53931;SDS011;39844;52.496;13.482;2023-07-13T01:20:39;2.73;;;2.03;;
53931;SDS011;39844;52.496;13.482;2023-07-13T01:23:06;2.35;;;1.60;;
53931;SDS011;39844;52.496;13.482;2023-07-13T01:25:35;1.88;;;1.60;;
53931;SDS011;39844;52.496;13.482;2023-07-13T01:28:04;2.13;;;1.70;;
53931;SDS011;39844;52.496;13.482;2023-07-13T01:30:31;2.88;;;1.90;;
53931;SDS011;39844;52.496;13.482;2023-07-13T01:32:56;1.50;;;1.33;;
53931;SDS011;39844;52.496;13.482;2023-07-13T01:35:22;3.97;;;1.70;;
53931;SDS011;39844;52.496;13.482;2023-07-13T01:37:47;1.53;;;1.43;;
53931;SDS011;39844;52.496;13.482;2023-07-13T01:40:12;1.88;;;1.70;;
53931;SDS011;39844;52.496;13.482;2023-07-13T01:42:38;4.73;;;1.80;;
53931;SDS011;39844;52.496;13.482;2023-07-13T01:45:03;3.43;;;1.83;;
53931;SDS011;39844;52.496;13.482;2023-07-13T01:47:29;3.97;;;2.00;;
53931;SDS011;39844;52.496;13.482;2023-07-13T01:49:55;1.80;;;1.63;;
53931;SDS011;39844;52.496;13.482;2023-07-13T01:52:20;2.03;;;1.70;;
53931;SDS011;39844;52.496;13.482;2023-07-13T01:54:46;3.33;;;1.70;;
53931;SDS011;39844;52.496;13.482;2023-07-13T01:57:11;1.83;;;1.63;;
53931;SDS011;39844;52.496;13.482;2023-07-13T01:59:36;3.53;;;1.70;;
53931;SDS011;39844;52.496;13.482;2023-07-13T02:02:01;1.70;;;1.60;;
53931;SDS011;39844;52.496;13.482;2023-07-13T02:04:27;2.10;;;1.60;;
53931;SDS011;39844;52.496;13.482;2023-07-13T02:06:52;1.73;;;1.63;;
53931;SDS011;39844;52.496;13.482;2023-07-13T02:09:17;1.70;;;1.60;;
53931;SDS011;39844;52.496;13.482;2023-07-13T02:11:43;3.80;;;1.83;;
53931;SDS011;39844;52.496;13.482;2023-07-13T02:14:10;4.23;;;2.00;;
53931;SDS011;39844;52.496;13.482;2023-07-13T02:16:35;3.83;;;1.80;;
53931;SDS011;39844;52.496;13.482;2023-07-13T02:19:01;1.20;;;1.20;;
53931;SDS011;39844;52.496;13.482;2023-07-13T02:21:26;2.07;;;1.83;;
53931;SDS011;39844;52.496;13.482;2023-07-13T02:23:51;2.37;;;1.60;;
53931;SDS011;39844;52.496;13.482;2023-07-13T02:26:17;1.80;;;1.67;;
53931;SDS011;39844;52.496;13.482;2023-07-13T02:28:42;1.80;;;1.70;;
53931;SDS011;39844;52.496;13.482;2023-07-13T02:31:08;1.67;;;1.57;;
53931;SDS011;39844;52.496;13.482;2023-07-13T02:33:36;4.40;;;1.90;;
53931;SDS011;39844;52.496;13.482;2023-07-13T02:36:01;1.80;;;1.70;;
53931;SDS011;39844;52.496;13.482;2023-07-13T02:38:27;2.13;;;1.93;;
53931;SDS011;39844;52.496;13.482;2023-07-13T02:40:52;3.57;;;1.67;;
53931;SDS011;39844;52.496;13.482;2023-07-13T02:43:18;4.10;;;1.77;;
53931;SDS011;39844;52.496;13.482;2023-07-13T02:45:44;1.60;;;1.50;;
53931;SDS011;39844;52.496;13.482;2023-07-13T02:48:10;1.93;;;1.70;;
53931;SDS011;39844;52.496;13.482;2023-07-13T02:50:35;2.57;;;1.70;;
53931;SDS011;39844;52.496;13.482;2023-07-13T02:53:00;4.87;;;1.90;;
53931;SDS011;39844;52.496;13.482;2023-07-13T02:55:26;1.60;;;1.60;;
53931;SDS011;39844;52.496;13.482;2023-07-13T02:57:51;2.07;;;1.97;;
53931;SDS011;39844;52.496;13.482;2023-07-13T03:00:16;2.00;;;1.90;;
53931;SDS011;39844;52.496;13.482;2023-07-13T03:02:42;1.80;;;1.70;;
53931;SDS011;39844;52.496;13.482;2023-07-13T03:05:07;1.90;;;1.80;;
53931;SDS011;39844;52.496;13.482;2023-07-13T03:07:34;6.43;;;2.20;;
53931;SDS011;39844;52.496;13.482;2023-07-13T03:09:59;2.27;;;1.77;;
53931;SDS011;39844;52.496;13.482;2023-07-13T03:12:24;2.37;;;1.93;;
53931;SDS011;39844;52.496;13.482;2023-07-13T03:14:50;2.80;;;1.97;;
53931;SDS011;39844;52.496;13.482;2023-07-13T03:17:18;2.17;;;2.07;;
53931;SDS011;39844;52.496;13.482;2023-07-13T03:19:43;2.10;;;1.87;;
53931;SDS011;39844;52.496;13.482;2023-07-13T03:22:08;2.73;;;1.50;;
53931;SDS011;39844;52.496;13.482;2023-07-13T03:24:34;1.93;;;1.70;;
53931;SDS011;39844;52.496;13.482;2023-07-13T03:27:03;2.43;;;1.90;;
53931;SDS011;39844;52.496;13.482;2023-07-13T03:29:29;2.60;;;1.93;;
53931;SDS011;39844;52.496;13.482;2023-07-13T03:31:55;2.33;;;2.10;;
53931;SDS011;39844;52.496;13.482;2023-07-13T03:34:20;3.00;;;1.67;;
53931;SDS011;39844;52.496;13.482;2023-07-13T03:36:45;2.93;;;2.00;;
53931;SDS011;39844;52.496;13.482;2023-07-13T03:39:11;2.10;;;1.90;;
53931;SDS011;39844;52.496;13.482;2023-07-13T03:41:36;2.67;;;1.83;;
53931;SDS011;39844;52.496;13.482;2023-07-13T03:44:01;1.97;;;1.77;;
53931;SDS011;39844;52.496;13.482;2023-07-13T03:46:27;3.40;;;1.70;;
53931;SDS011;39844;52.496;13.482;2023-07-13T03:48:52;2.37;;;1.50;;
53931;SDS011;39844;52.496;13.482;2023-07-13T03:51:18;3.13;;;1.80;;
53931;SDS011;39844;52.496;13.482;2023-07-13T03:53:44;2.03;;;1.60;;
53931;SDS011;39844;52.496;13.482;2023-07-13T03:56:11;1.93;;;1.77;;
53931;SDS011;39844;52.496;13.482;2023-07-13T03:58:38;2.30;;;1.73;;
53931;SDS011;39844;52.496;13.482;2023-07-13T04:01:05;3.80;;;1.73;;
53931;SDS011;39844;52.496;13.482;2023-07-13T04:03:32;1.90;;;1.80;;
53931;SDS011;39844;52.496;13.482;2023-07-13T04:05:59;1.77;;;1.70;;
53931;SDS011;39844;52.496;13.482;2023-07-13T04:08:28;3.10;;;1.70;;
53931;SDS011;39844;52.496;13.482;2023-07-13T04:10:56;1.60;;;1.50;;
53931;SDS011;39844;52.496;13.482;2023-07-13T04:13:25;1.60;;;1.60;;
53931;SDS011;39844;52.496;13.482;2023-07-13T04:15:51;1.93;;;1.70;;
53931;SDS011;39844;52.496;13.482;2023-07-13T04:18:16;2.03;;;1.50;;
53931;SDS011;39844;52.496;13.482;2023-07-13T04:20:42;2.30;;;1.50;;
53931;SDS011;39844;52.496;13.482;2023-07-13T04:23:07;3.13;;;1.60;;
53931;SDS011;39844;52.496;13.482;2023-07-13T04:25:32;1.60;;;1.50;;
53931;SDS011;39844;52.496;13.482;2023-07-13T04:27:58;1.40;;;1.40;;
53931;SDS011;39844;52.496;13.482;2023-07-13T04:30:23;1.60;;;1.50;;
53931;SDS011;39844;52.496;13.482;2023-07-13T04:32:50;2.03;;;1.80;;
53931;SDS011;39844;52.496;13.482;2023-07-13T04:35:16;2.03;;;1.60;;
53931;SDS011;39844;52.496;13.482;2023-07-13T04:37:42;2.30;;;1.43;;
53931;SDS011;39844;52.496;13.482;2023-07-13T04:40:07;2.10;;;1.50;;
53931;SDS011;39844;52.496;13.482;2023-07-13T04:42:33;1.40;;;1.30;;
53931;SDS011;39844;52.496;13.482;2023-07-13T04:44:58;1.73;;;1.60;;
53931;SDS011;39844;52.496;13.482;2023-07-13T04:47:23;4.57;;;1.20;;
53931;SDS011;39844;52.496;13.482;2023-07-13T04:49:48;1.50;;;1.40;;
53931;SDS011;39844;52.496;13.482;2023-07-13T04:52:14;1.90;;;1.43;;
53931;SDS011;39844;52.496;13.482;2023-07-13T04:54:39;1.40;;;1.30;;
53931;SDS011;39844;52.496;13.482;2023-07-13T04:57:05;1.83;;;1.30;;
53931;SDS011;39844;52.496;13.482;2023-07-13T04:59:30;1.23;;;1.23;;
53931;SDS011;39844;52.496;13.482;2023-07-13T05:01:56;1.53;;;1.43;;
53931;SDS011;39844;52.496;13.482;2023-07-13T05:04:21;1.90;;;1.50;;
53931;SDS011;39844;52.496;13.482;2023-07-13T05:06:49;1.50;;;1.40;;
53931;SDS011;39844;52.496;13.482;2023-07-13T05:09:14;1.70;;;1.53;;
53931;SDS011;39844;52.496;13.482;2023-07-13T05:11:39;3.63;;;1.63;;
53931;SDS011;39844;52.496;13.482;2023-07-13T05:14:04;1.10;;;1.10;;
53931;SDS011;39844;52.496;13.482;2023-07-13T05:16:30;1.60;;;1.50;;
53931;SDS011;39844;52.496;13.482;2023-07-13T05:18:55;1.50;;;1.40;;
53931;SDS011;39844;52.496;13.482;2023-07-13T05:21:20;1.53;;;1.43;;
53931;SDS011;39844;52.496;13.482;2023-07-13T05:23:46;2.13;;;1.23;;
53931;SDS011;39844;52.496;13.482;2023-07-13T05:26:12;2.63;;;1.53;;
53931;SDS011;39844;52.496;13.482;2023-07-13T05:28:37;3.05;;;1.80;;
53931;SDS011;39844;52.496;13.482;2023-07-13T05:31:03;1.37;;;1.27;;
53931;SDS011;39844;52.496;13.482;2023-07-13T05:33:29;1.40;;;1.30;;
53931;SDS011;39844;52.496;13.482;2023-07-13T05:35:54;2.60;;;1.47;;
53931;SDS011;39844;52.496;13.482;2023-07-13T05:38:20;2.38;;;1.42;;
53931;SDS011;39844;52.496;13.482;2023-07-13T05:40:46;1.93;;;1.30;;
53931;SDS011;39844;52.496;13.482;2023-07-13T05:43:12;1.70;;;1.57;;
53931;SDS011;39844;52.496;13.482;2023-07-13T05:45:37;1.87;;;1.20;;
53931;SDS011;39844;52.496;13.482;2023-07-13T05:48:03;2.90;;;1.70;;
53931;SDS011;39844;52.496;13.482;2023-07-13T05:50:28;2.17;;;1.20;;
53931;SDS011;39844;52.496;13.482;2023-07-13T05:52:53;5.80;;;1.57;;
53931;SDS011;39844;52.496;13.482;2023-07-13T05:55:19;2.03;;;1.50;;
53931;SDS011;39844;52.496;13.482;2023-07-13T05:57:44;1.47;;;1.37;;
53931;SDS011;39844;52.496;13.482;2023-07-13T06:00:10;2.03;;;1.50;;
53931;SDS011;39844;52.496;13.482;2023-07-13T06:02:36;1.40;;;1.40;;
53931;SDS011;39844;52.496;13.482;2023-07-13T06:05:01;3.13;;;1.60;;
53931;SDS011;39844;52.496;13.482;2023-07-13T06:07:27;3.07;;;1.30;;
53931;SDS011;39844;52.496;13.482;2023-07-13T06:09:52;1.90;;;1.77;;
53931;SDS011;39844;52.496;13.482;2023-07-13T06:12:17;1.50;;;1.30;;
53931;SDS011;39844;52.496;13.482;2023-07-13T06:14:43;1.33;;;1.33;;
53931;SDS011;39844;52.496;13.482;2023-07-13T06:17:08;4.00;;;1.63;;
53931;SDS011;39844;52.496;13.482;2023-07-13T06:19:34;1.87;;;1.37;;
53931;SDS011;39844;52.496;13.482;2023-07-13T06:21:59;2.57;;;1.87;;
53931;SDS011;39844;52.496;13.482;2023-07-13T06:24:25;1.35;;;1.25;;
53931;SDS011;39844;52.496;13.482;2023-07-13T06:26:50;5.60;;;1.83;;
53931;SDS011;39844;52.496;13.482;2023-07-13T06:29:15;3.55;;;1.63;;
53931;SDS011;39844;52.496;13.482;2023-07-13T06:31:41;2.00;;;1.73;;
53931;SDS011;39844;52.496;13.482;2023-07-13T06:34:06;2.17;;;1.88;;
53931;SDS011;39844;52.496;13.482;2023-07-13T06:36:32;4.82;;;2.00;;
53931;SDS011;39844;52.496;13.482;2023-07-13T06:38:57;1.65;;;1.48;;
53931;SDS011;39844;52.496;13.482;2023-07-13T06:41:22;1.40;;;1.30;;
53931;SDS011;39844;52.496;13.482;2023-07-13T06:43:48;2.20;;;1.97;;
53931;SDS011;39844;52.496;13.482;2023-07-13T06:46:13;5.80;;;1.63;;
53931;SDS011;39844;52.496;13.482;2023-07-13T06:48:38;5.07;;;1.65;;
53931;SDS011;39844;52.496;13.482;2023-07-13T06:51:04;2.77;;;1.83;;
53931;SDS011;39844;52.496;13.482;2023-07-13T06:53:29;4.00;;;1.50;;
53931;SDS011;39844;52.496;13.482;2023-07-13T06:55:54;1.65;;;1.55;;
53931;SDS011;39844;52.496;13.482;2023-07-13T06:58:21;3.28;;;1.90;;
53931;SDS011;39844;52.496;13.482;2023-07-13T07:00:49;1.83;;;1.40;;
53931;SDS011;39844;52.496;13.482;2023-07-13T07:03:16;3.63;;;1.50;;
53931;SDS011;39844;52.496;13.482;2023-07-13T07:05:41;1.52;;;1.42;;
53931;SDS011;39844;52.496;13.482;2023-07-13T07:08:06;1.25;;;1.20;;
53931;SDS011;39844;52.496;13.482;2023-07-13T07:10:33;1.35;;;1.25;;
53931;SDS011;39844;52.496;13.482;2023-07-13T07:12:59;2.70;;;1.48;;
53931;SDS011;39844;52.496;13.482;2023-07-13T07:15:25;4.05;;;1.50;;
53931;SDS011;39844;52.496;13.482;2023-07-13T07:17:50;1.58;;;1.42;;
53931;SDS011;39844;52.496;13.482;2023-07-13T07:20:15;4.78;;;1.60;;
53931;SDS011;39844;52.496;13.482;2023-07-13T07:22:41;1.88;;;1.48;;
53931;SDS011;39844;52.496;13.482;2023-07-13T07:25:06;2.47;;;1.30;;
53931;SDS011;39844;52.496;13.482;2023-07-13T07:27:32;1.63;;;1.45;;
53931;SDS011;39844;52.496;13.482;2023-07-13T07:29:57;1.23;;;1.00;;
53931;SDS011;39844;52.496;13.482;2023-07-13T07:32:23;1.48;;;1.27;;
53931;SDS011;39844;52.496;13.482;2023-07-13T07:34:48;1.23;;;1.13;;
53931;SDS011;39844;52.496;13.482;2023-07-13T07:37:14;1.20;;;1.10;;
53931;SDS011;39844;52.496;13.482;2023-07-13T07:39:40;1.20;;;1.10;;
53931;SDS011;39844;52.496;13.482;2023-07-13T07:42:05;2.45;;;1.05;;
53931;SDS011;39844;52.496;13.482;2023-07-13T07:44:32;1.23;;;1.10;;
53931;SDS011;39844;52.496;13.482;2023-07-13T07:46:58;1.25;;;1.10;;
53931;SDS011;39844;52.496;13.482;2023-07-13T07:49:23;2.15;;;1.10;;
53931;SDS011;39844;52.496;13.482;2023-07-13T07:51:49;2.97;;;1.25;;
53931;SDS011;39844;52.496;13.482;2023-07-13T07:54:14;1.77;;;1.00;;
53931;SDS011;39844;52.496;13.482;2023-07-13T07:56:40;1.20;;;1.10;;
53931;SDS011;39844;52.496;13.482;2023-07-13T07:59:05;1.20;;;1.20;;
53931;SDS011;39844;52.496;13.482;2023-07-13T08:01:31;1.30;;;1.20;;
53931;SDS011;39844;52.496;13.482;2023-07-13T08:03:56;1.45;;;1.20;;
53931;SDS011;39844;52.496;13.482;2023-07-13T08:06:21;1.00;;;1.00;;
53931;SDS011;39844;52.496;13.482;2023-07-13T08:08:46;1.10;;;1.10;;
53931;SDS011;39844;52.496;13.482;2023-07-13T08:11:12;1.92;;;1.35;;
53931;SDS011;39844;52.496;13.482;2023-07-13T08:13:37;2.05;;;1.20;;
53931;SDS011;39844;52.496;13.482;2023-07-13T08:16:06;1.10;;;1.10;;
53931;SDS011;39844;52.496;13.482;2023-07-13T08:18:31;0.95;;;0.95;;
53931;SDS011;39844;52.496;13.482;2023-07-13T08:20:57;2.25;;;1.48;;
53931;SDS011;39844;52.496;13.482;2023-07-13T08:23:23;1.15;;;1.08;;
53931;SDS011;39844;52.496;13.482;2023-07-13T08:25:51;1.90;;;0.95;;
53931;SDS011;39844;52.496;13.482;2023-07-13T08:28:19;1.65;;;1.25;;
53931;SDS011;39844;52.496;13.482;2023-07-13T08:30:44;1.17;;;1.13;;
53931;SDS011;39844;52.496;13.482;2023-07-13T08:33:10;1.42;;;1.10;;
53931;SDS011;39844;52.496;13.482;2023-07-13T08:35:35;1.92;;;1.20;;
53931;SDS011;39844;52.496;13.482;2023-07-13T08:38:00;1.05;;;1.00;;
53931;SDS011;39844;52.496;13.482;2023-07-13T08:40:26;1.48;;;1.38;;
53931;SDS011;39844;52.496;13.482;2023-07-13T08:42:53;1.23;;;1.00;;
53931;SDS011;39844;52.496;13.482;2023-07-13T08:45:43;0.90;;;0.90;;
53931;SDS011;39844;52.496;13.482;2023-07-13T08:50:47;1.45;;;1.10;;
53931;SDS011;39844;52.496;13.482;2023-07-13T08:53:16;2.55;;;1.08;;
53931;SDS011;39844;52.496;13.482;2023-07-13T08:55:43;1.75;;;1.10;;
53931;SDS011;39844;52.496;13.482;2023-07-13T08:58:12;1.50;;;1.10;;
53931;SDS011;39844;52.496;13.482;2023-07-13T09:00:48;1.30;;;1.17;;
53931;SDS011;39844;52.496;13.482;2023-07-13T09:03:23;2.58;;;1.20;;
53931;SDS011;39844;52.496;13.482;2023-07-13T09:05:52;1.08;;;1.08;;
53931;SDS011;39844;52.496;13.482;2023-07-13T09:10:57;3.33;;;1.33;;
53931;SDS011;39844;52.496;13.482;2023-07-13T09:13:31;1.40;;;1.30;;
53931;SDS011;39844;52.496;13.482;2023-07-13T09:16:09;1.45;;;1.35;;
53931;SDS011;39844;52.496;13.482;2023-07-13T09:18:37;1.90;;;0.90;;
53931;SDS011;39844;52.496;13.482;2023-07-13T09:21:14;1.10;;;1.10;;
53931;SDS011;39844;52.496;13.482;2023-07-13T09:23:43;1.17;;;1.10;;
53931;SDS011;39844;52.496;13.482;2023-07-13T09:28:45;1.30;;;1.20;;
53931;SDS011;39844;52.496;13.482;2023-07-13T09:31:14;1.10;;;1.00;;
53931;SDS011;39844;52.496;13.482;2023-07-13T09:33:43;1.05;;;0.95;;
53931;SDS011;39844;52.496;13.482;2023-07-13T09:36:22;3.55;;;1.20;;
53931;SDS011;39844;52.496;13.482;2023-07-13T09:38:56;1.40;;;0.95;;
53931;SDS011;39844;52.496;13.482;2023-07-13T09:44:15;1.40;;;1.02;;
53931;SDS011;39844;52.496;13.482;2023-07-13T09:46:44;1.25;;;1.10;;
53931;SDS011;39844;52.496;13.482;2023-07-13T09:49:17;2.42;;;1.20;;
53931;SDS011;39844;52.496;13.482;2023-07-13T09:51:42;1.40;;;1.30;;
53931;SDS011;39844;52.496;13.482;2023-07-13T09:54:17;3.13;;;1.30;;
53931;SDS011;39844;52.496;13.482;2023-07-13T09:56:44;1.40;;;1.20;;
53931;SDS011;39844;52.496;13.482;2023-07-13T09:59:20;2.35;;;1.50;;
53931;SDS011;39844;52.496;13.482;2023-07-13T10:01:47;1.30;;;1.30;;
53931;SDS011;39844;52.496;13.482;2023-07-13T10:04:12;2.67;;;1.70;;
53931;SDS011;39844;52.496;13.482;2023-07-13T10:06:39;3.85;;;1.60;;
53931;SDS011;39844;52.496;13.482;2023-07-13T10:09:06;2.30;;;1.80;;
53931;SDS011;39844;52.496;13.482;2023-07-13T10:11:34;1.48;;;1.40;;
53931;SDS011;39844;52.496;13.482;2023-07-13T10:14:22;3.15;;;1.70;;
53931;SDS011;39844;52.496;13.482;2023-07-13T10:16:47;4.50;;;1.90;;
53931;SDS011;39844;52.496;13.482;2023-07-13T10:19:25;1.95;;;1.75;;
53931;SDS011;39844;52.496;13.482;2023-07-13T10:21:54;2.20;;;2.00;;
53931;SDS011;39844;52.496;13.482;2023-07-13T10:24:21;3.13;;;1.83;;
53931;SDS011;39844;52.496;13.482;2023-07-13T10:29:23;3.78;;;1.70;;
53931;SDS011;39844;52.496;13.482;2023-07-13T10:31:52;1.70;;;1.50;;
53931;SDS011;39844;52.496;13.482;2023-07-13T10:34:17;2.67;;;2.00;;
53931;SDS011;39844;52.496;13.482;2023-07-13T10:36:44;3.63;;;1.75;;
53931;SDS011;39844;52.496;13.482;2023-07-13T10:39:26;2.08;;;1.67;;
53931;SDS011;39844;52.496;13.482;2023-07-13T10:41:54;3.22;;;1.60;;
53931;SDS011;39844;52.496;13.482;2023-07-13T10:44:26;2.53;;;1.73;;
53931;SDS011;39844;52.496;13.482;2023-07-13T10:47:27;2.00;;;1.60;;
53931;SDS011;39844;52.496;13.482;2023-07-13T10:49:45;2.53;;;1.75;;
53931;SDS011;39844;52.496;13.482;2023-07-13T10:52:40;2.22;;;1.70;;
53931;SDS011;39844;52.496;13.482;2023-07-13T10:58:11;2.17;;;1.80;;
53931;SDS011;39844;52.496;13.482;2023-07-13T11:01:21;1.70;;;1.60;;
53931;SDS011;39844;52.496;13.482;2023-07-13T11:06:10;2.70;;;1.75;;
53931;SDS011;39844;52.496;13.482;2023-07-13T11:27:45;1.50;;;1.40;;
53931;SDS011;39844;52.496;13.482;2023-07-13T11:30:21;1.58;;;1.50;;
53931;SDS011;39844;52.496;13.482;2023-07-13T11:35:59;1.20;;;1.20;;
53931;SDS011;39844;52.496;13.482;2023-07-13T11:40:55;2.28;;;1.65;;
53931;SDS011;39844;52.496;13.482;2023-07-13T11:43:21;2.72;;;1.40;;
53931;SDS011;39844;52.496;13.482;2023-07-13T11:45:47;2.72;;;1.48;;
53931;SDS011;39844;52.496;13.482;2023-07-13T11:48:23;2.10;;;1.65;;
53931;SDS011;39844;52.496;13.482;2023-07-13T11:50:55;1.38;;;1.30;;
53931;SDS011;39844;52.496;13.482;2023-07-13T11:53:26;2.17;;;1.55;;
53931;SDS011;39844;52.496;13.482;2023-07-13T11:55:53;1.60;;;1.52;;
53931;SDS011;39844;52.496;13.482;2023-07-13T11:58:20;4.82;;;1.80;;
53931;SDS011;39844;52.496;13.482;2023-07-13T12:00:48;3.20;;;1.90;;
53931;SDS011;39844;52.496;13.482;2023-07-13T12:03:14;2.38;;;1.40;;
53931;SDS011;39844;52.496;13.482;2023-07-13T12:08:29;1.67;;;1.58;;
53931;SDS011;39844;52.496;13.482;2023-07-13T12:11:14;1.40;;;1.30;;
53931;SDS011;39844;52.496;13.482;2023-07-13T12:13:41;1.42;;;1.35;;
53931;SDS011;39844;52.496;13.482;2023-07-13T12:16:52;3.80;;;1.40;;
53931;SDS011;39844;52.496;13.482;2023-07-13T12:18:58;1.70;;;1.60;;
53931;SDS011;39844;52.496;13.482;2023-07-13T12:21:30;1.50;;;1.40;;
53931;SDS011;39844;52.496;13.482;2023-07-13T12:23:57;3.42;;;1.75;;
53931;SDS011;39844;52.496;13.482;2023-07-13T12:26:23;1.65;;;1.55;;
53931;SDS011;39844;52.496;13.482;2023-07-13T12:28:51;2.45;;;1.45;;
53931;SDS011;39844;52.496;13.482;2023-07-13T12:32:03;3.15;;;1.67;;
53931;SDS011;39844;52.496;13.482;2023-07-13T12:34:08;1.58;;;1.45;;
53931;SDS011;39844;52.496;13.482;2023-07-13T12:36:36;5.80;;;1.70;;
53931;SDS011;39844;52.496;13.482;2023-07-13T12:39:04;1.65;;;1.55;;
53931;SDS011;39844;52.496;13.482;2023-07-13T12:41:39;1.67;;;1.40;;
53931;SDS011;39844;52.496;13.482;2023-07-13T12:44:08;2.90;;;1.75;;
53931;SDS011;39844;52.496;13.482;2023-07-13T12:46:36;1.50;;;1.40;;
53931;SDS011;39844;52.496;13.482;2023-07-13T12:49:01;4.43;;;1.60;;
53931;SDS011;39844;52.496;13.482;2023-07-13T12:51:31;2.58;;;1.63;;
53931;SDS011;39844;52.496;13.482;2023-07-13T12:54:15;1.40;;;1.30;;
53931;SDS011;39844;52.496;13.482;2023-07-13T12:56:41;6.95;;;1.70;;
53931;SDS011;39844;52.496;13.482;2023-07-13T12:59:08;1.80;;;1.48;;
53931;SDS011;39844;52.496;13.482;2023-07-13T13:01:42;2.63;;;1.40;;
53931;SDS011;39844;52.496;13.482;2023-07-13T13:04:08;1.40;;;1.27;;
53931;SDS011;39844;52.496;13.482;2023-07-13T13:06:37;5.45;;;1.73;;
53931;SDS011;39844;52.496;13.482;2023-07-13T13:09:02;2.92;;;1.42;;
53931;SDS011;39844;52.496;13.482;2023-07-13T13:11:29;1.95;;;1.42;;
53931;SDS011;39844;52.496;13.482;2023-07-13T13:13:56;2.40;;;1.52;;
53931;SDS011;39844;52.496;13.482;2023-07-13T13:18:49;1.38;;;1.10;;
53931;SDS011;39844;52.496;13.482;2023-07-13T13:21:15;2.15;;;1.27;;
53931;SDS011;39844;52.496;13.482;2023-07-13T13:23:41;1.60;;;1.38;;
53931;SDS011;39844;52.496;13.482;2023-07-13T13:26:13;1.30;;;1.23;;
53931;SDS011;39844;52.496;13.482;2023-07-13T13:28:40;3.05;;;1.40;;
53931;SDS011;39844;52.496;13.482;2023-07-13T13:31:05;1.92;;;1.30;;
53931;SDS011;39844;52.496;13.482;2023-07-13T13:33:32;2.83;;;1.45;;
53931;SDS011;39844;52.496;13.482;2023-07-13T13:35:58;1.75;;;1.20;;
53931;SDS011;39844;52.496;13.482;2023-07-13T13:38:27;7.25;;;1.42;;
53931;SDS011;39844;52.496;13.482;2023-07-13T13:40:53;3.28;;;1.25;;
53931;SDS011;39844;52.496;13.482;2023-07-13T13:43:22;3.08;;;1.52;;
53931;SDS011;39844;52.496;13.482;2023-07-13T13:45:49;3.22;;;1.45;;
53931;SDS011;39844;52.496;13.482;2023-07-13T13:48:15;2.40;;;1.30;;
53931;SDS011;39844;52.496;13.482;2023-07-13T13:50:45;1.20;;;1.05;;
53931;SDS011;39844;52.496;13.482;2023-07-13T13:53:11;1.27;;;1.17;;
53931;SDS011;39844;52.496;13.482;2023-07-13T13:55:37;1.50;;;1.40;;
53931;SDS011;39844;52.496;13.482;2023-07-13T13:58:03;1.83;;;1.15;;
53931;SDS011;39844;52.496;13.482;2023-07-13T14:00:28;1.27;;;1.27;;
53931;SDS011;39844;52.496;13.482;2023-07-13T14:02:56;2.10;;;1.30;;
53931;SDS011;39844;52.496;13.482;2023-07-13T14:05:27;2.45;;;1.33;;
53931;SDS011;39844;52.496;13.482;2023-07-13T14:07:54;1.95;;;1.33;;
53931;SDS011;39844;52.496;13.482;2023-07-13T14:10:22;1.38;;;1.10;;
53931;SDS011;39844;52.496;13.482;2023-07-13T14:12:52;1.40;;;1.20;;
53931;SDS011;39844;52.496;13.482;2023-07-13T14:17:58;3.80;;;1.40;;
53931;SDS011;39844;52.496;13.482;2023-07-13T14:20:26;1.13;;;1.00;;
53931;SDS011;39844;52.496;13.482;2023-07-13T14:22:52;2.55;;;1.52;;
53931;SDS011;39844;52.496;13.482;2023-07-13T14:25:32;1.35;;;1.25;;
53931;SDS011;39844;52.496;13.482;2023-07-13T14:28:10;1.30;;;1.20;;
53931;SDS011;39844;52.496;13.482;2023-07-13T14:30:43;2.67;;;0.93;;
53931;SDS011;39844;52.496;13.482;2023-07-13T14:33:11;1.90;;;1.10;;
53931;SDS011;39844;52.496;13.482;2023-07-13T14:35:45;1.60;;;1.35;;
53931;SDS011;39844;52.496;13.482;2023-07-13T14:38:18;5.05;;;1.48;;
53931;SDS011;39844;52.496;13.482;2023-07-13T14:40:49;1.30;;;1.20;;
53931;SDS011;39844;52.496;13.482;2023-07-13T14:43:15;1.05;;;1.05;;
53931;SDS011;39844;52.496;13.482;2023-07-13T14:45:43;5.97;;;1.40;;
53931;SDS011;39844;52.496;13.482;2023-07-13T14:48:21;2.88;;;1.27;;
53931;SDS011;39844;52.496;13.482;2023-07-13T14:50:55;1.50;;;1.15;;
53931;SDS011;39844;52.496;13.482;2023-07-13T14:53:27;1.02;;;1.02;;
53931;SDS011;39844;52.496;13.482;2023-07-13T14:55:56;1.30;;;1.10;;
53931;SDS011;39844;52.496;13.482;2023-07-13T14:58:21;1.00;;;0.95;;
53931;SDS011;39844;52.496;13.482;2023-07-13T15:00:50;0.95;;;0.95;;
53931;SDS011;39844;52.496;13.482;2023-07-13T15:03:22;2.15;;;0.95;;
53931;SDS011;39844;52.496;13.482;2023-07-13T15:05:51;1.00;;;1.00;;
53931;SDS011;39844;52.496;13.482;2023-07-13T15:08:20;1.48;;;1.10;;
53931;SDS011;39844;52.496;13.482;2023-07-13T15:10:46;1.17;;;1.00;;
53931;SDS011;39844;52.496;13.482;2023-07-13T15:15:39;3.15;;;1.23;;
53931;SDS011;39844;52.496;13.482;2023-07-13T15:18:09;1.02;;;0.90;;
53931;SDS011;39844;52.496;13.482;2023-07-13T15:20:36;1.30;;;1.15;;
53931;SDS011;39844;52.496;13.482;2023-07-13T15:23:01;2.88;;;1.00;;
53931;SDS011;39844;52.496;13.482;2023-07-13T15:25:28;2.20;;;0.80;;
53931;SDS011;39844;52.496;13.482;2023-07-13T15:27:56;0.75;;;0.75;;
53931;SDS011;39844;52.496;13.482;2023-07-13T15:30:22;2.03;;;1.08;;
53931;SDS011;39844;52.496;13.482;2023-07-13T15:32:50;1.27;;;1.00;;
53931;SDS011;39844;52.496;13.482;2023-07-13T15:35:16;2.83;;;0.90;;